Wesley, Arkansas
Current Conditions -  °F | °C
As of 8:53 PM on Saturday 20 Dec 2014 (Local Time) from KFYV Reporting Station
Overcast Overcast  
Wind Chill: 40°   Ceiling: 2600
Heat Index: 40°   Visibility: 10mi
Dew Point: 37°   Wind: 0mph
Humidity: 89%   Direction: NA
Pressure: 30.2"   Gusts: NA
Location:  36.03°N, 93.92°W
Report Text: KFYV 210253Z AUTO 00000KT 10SM OVC026 04/03 A3020 RMK AO2 SLP231 T00440028 52002
Loading
Personal Weather Stations






























Interactive Weather Map New forecast layout! Learn more

10-Day Weather Forecast

Advertisements
Track Severe Weather on mobile